BAW5KW TLPL-EGKK
Flight info
| Callsign | BAW5KW |
|---|---|
| Flight time | N/A |
| Altitude | 35000 |
| Route | FOF DCT 16N060W DCT CITRS/M085F350 DCT 24N055W/M085F370 27N053W 31N050W 39N040W 45N030W/M085F390 48N020W DCT BEDRA DCT NASBA DCT GAPLI/N0489F390 DCT SIDDI DCT DAWLY DCT ELRIP DCT OTMET |
| Aircraft | B772/H-SDE2E3FGHIJ5LORVWXY/LB1D1 |
Departure
| Time | N/A |
|---|---|
| Airport | Hewanorra International Airport (TLPL) |
Arrival
| Time | 2026-05-05 09:59 |
|---|---|
| Airport | London Gatwick Airport (EGKK) |
| Time | Latitude | Longitude | Altitude | Speed | Heading |
|---|---|---|---|---|---|
| 2026-05-05 08:54 | 49.54232 | -10.44824 | 39129 ft | 482 kts | 71° |
| 2026-05-05 08:55 | 49.55212 | -10.39902 | 39128 ft | 481 kts | 71° |
| 2026-05-05 08:55 | 49.57161 | -10.30074 | 39125 ft | 481 kts | 71° |
| 2026-05-05 08:56 | 49.59111 | -10.20193 | 39124 ft | 481 kts | 71° |
| 2026-05-05 08:56 | 49.61038 | -10.10376 | 39117 ft | 480 kts | 71° |
| 2026-05-05 08:57 | 49.62968 | -10.00493 | 39117 ft | 480 kts | 71° |
| 2026-05-05 08:57 | 49.64876 | -9.90674 | 39112 ft | 479 kts | 71° |
| 2026-05-05 08:58 | 49.66788 | -9.80783 | 39114 ft | 479 kts | 71° |
| 2026-05-05 08:58 | 49.68687 | -9.70909 | 39107 ft | 479 kts | 71° |
| 2026-05-05 08:59 | 49.70561 | -9.61108 | 39108 ft | 479 kts | 71° |
| 2026-05-05 08:59 | 49.72443 | -9.51223 | 39106 ft | 479 kts | 72° |
| 2026-05-05 09:00 | 49.74315 | -9.41335 | 39103 ft | 479 kts | 72° |
| 2026-05-05 09:00 | 49.76181 | -9.31427 | 39099 ft | 480 kts | 72° |
| 2026-05-05 09:01 | 49.78037 | -9.21515 | 39106 ft | 480 kts | 72° |
| 2026-05-05 09:01 | 49.79887 | -9.11589 | 39105 ft | 480 kts | 72° |
| 2026-05-05 09:02 | 49.81730 | -9.01640 | 39099 ft | 481 kts | 72° |
| 2026-05-05 09:02 | 49.83557 | -8.91728 | 39095 ft | 481 kts | 73° |
| 2026-05-05 09:03 | 49.85390 | -8.81728 | 39092 ft | 481 kts | 73° |
| 2026-05-05 09:03 | 49.87201 | -8.71795 | 39091 ft | 481 kts | 73° |
| 2026-05-05 09:04 | 49.89018 | -8.61778 | 39089 ft | 481 kts | 73° |
| 2026-05-05 09:04 | 49.90809 | -8.51844 | 39090 ft | 481 kts | 73° |
| 2026-05-05 09:05 | 49.92606 | -8.41827 | 39085 ft | 482 kts | 73° |
| 2026-05-05 09:05 | 49.94395 | -8.31798 | 39087 ft | 482 kts | 73° |
| 2026-05-05 09:06 | 49.96177 | -8.21750 | 39080 ft | 482 kts | 73° |
| 2026-05-05 09:06 | 49.97937 | -8.11768 | 39081 ft | 482 kts | 73° |
| 2026-05-05 09:07 | 49.99701 | -8.01722 | 39075 ft | 482 kts | 73° |
| 2026-05-05 09:07 | 50.01328 | -7.91652 | 39077 ft | 482 kts | 76° |
| 2026-05-05 09:08 | 50.02777 | -7.81458 | 39074 ft | 482 kts | 77° |
| 2026-05-05 09:08 | 50.04214 | -7.71257 | 39072 ft | 483 kts | 76° |
| 2026-05-05 09:09 | 50.05670 | -7.61061 | 39071 ft | 483 kts | 76° |
| 2026-05-05 09:09 | 50.07137 | -7.50826 | 39067 ft | 483 kts | 76° |
| 2026-05-05 09:10 | 50.08581 | -7.40699 | 39066 ft | 482 kts | 76° |
| 2026-05-05 09:10 | 50.10032 | -7.30458 | 39063 ft | 483 kts | 77° |
| 2026-05-05 09:11 | 50.11459 | -7.20301 | 39061 ft | 483 kts | 77° |
| 2026-05-05 09:11 | 50.12891 | -7.10041 | 39046 ft | 483 kts | 77° |
| 2026-05-05 09:12 | 50.14307 | -6.99815 | 39046 ft | 483 kts | 77° |
| 2026-05-05 09:12 | 50.15709 | -6.89621 | 39058 ft | 483 kts | 77° |
| 2026-05-05 09:13 | 50.17107 | -6.79394 | 39056 ft | 483 kts | 77° |
| 2026-05-05 09:13 | 50.18502 | -6.69110 | 39043 ft | 484 kts | 77° |
| 2026-05-05 09:14 | 50.19888 | -6.58827 | 39055 ft | 484 kts | 77° |
| 2026-05-05 09:14 | 50.21259 | -6.48576 | 39053 ft | 484 kts | 77° |
| 2026-05-05 09:15 | 50.22632 | -6.38237 | 39052 ft | 485 kts | 78° |
| 2026-05-05 09:15 | 50.23992 | -6.27922 | 39040 ft | 485 kts | 78° |
| 2026-05-05 09:16 | 50.25335 | -6.17661 | 39034 ft | 485 kts | 78° |
| 2026-05-05 09:16 | 50.26681 | -6.07300 | 39032 ft | 486 kts | 78° |
| 2026-05-05 09:17 | 50.28011 | -5.96985 | 39025 ft | 486 kts | 78° |
| 2026-05-05 09:17 | 50.29340 | -5.86612 | 39025 ft | 486 kts | 78° |
| 2026-05-05 09:18 | 50.30661 | -5.76209 | 39026 ft | 486 kts | 78° |
| 2026-05-05 09:18 | 50.31965 | -5.65865 | 39025 ft | 486 kts | 78° |
| 2026-05-05 09:19 | 50.33269 | -5.55442 | 39020 ft | 486 kts | 78° |
| 2026-05-05 09:19 | 50.34553 | -5.45107 | 39025 ft | 486 kts | 79° |
| 2026-05-05 09:20 | 50.35834 | -5.34706 | 39021 ft | 486 kts | 79° |
| 2026-05-05 09:20 | 50.37108 | -5.24286 | 39033 ft | 486 kts | 79° |
| 2026-05-05 09:21 | 50.38365 | -5.13926 | 39019 ft | 486 kts | 79° |
| 2026-05-05 09:21 | 50.39616 | -5.03530 | 39016 ft | 485 kts | 79° |
| 2026-05-05 09:22 | 50.40858 | -4.93124 | 39031 ft | 485 kts | 79° |
| 2026-05-05 09:22 | 50.42087 | -4.82754 | 39017 ft | 485 kts | 79° |
| 2026-05-05 09:23 | 50.43310 | -4.72338 | 39023 ft | 485 kts | 79° |
| 2026-05-05 09:23 | 50.44526 | -4.61905 | 39011 ft | 485 kts | 79° |
| 2026-05-05 09:24 | 50.45530 | -4.53226 | 39021 ft | 486 kts | 80° |
| 2026-05-05 09:24 | 50.46922 | -4.41090 | 39014 ft | 486 kts | 80° |
| 2026-05-05 09:25 | 50.47920 | -4.32321 | 39007 ft | 486 kts | 80° |
| 2026-05-05 09:25 | 50.49092 | -4.21932 | 39011 ft | 486 kts | 80° |
| 2026-05-05 09:26 | 50.50267 | -4.11439 | 39010 ft | 486 kts | 80° |
| 2026-05-05 09:26 | 50.51426 | -4.01013 | 39017 ft | 487 kts | 80° |
| 2026-05-05 09:27 | 50.52586 | -3.90510 | 39017 ft | 487 kts | 80° |
| 2026-05-05 09:27 | 50.53748 | -3.80009 | 39013 ft | 487 kts | 80° |
| 2026-05-05 09:28 | 50.54895 | -3.69569 | 39013 ft | 488 kts | 80° |
| 2026-05-05 09:28 | 50.56038 | -3.59051 | 39025 ft | 488 kts | 81° |
| 2026-05-05 09:29 | 50.57174 | -3.48521 | 39022 ft | 488 kts | 81° |
| 2026-05-05 09:29 | 50.58359 | -3.37989 | 39023 ft | 488 kts | 79° |
| 2026-05-05 09:30 | 50.59601 | -3.27549 | 38937 ft | 490 kts | 79° |
| 2026-05-05 09:30 | 50.60225 | -3.22258 | 38621 ft | 490 kts | 80° |
| 2026-05-05 09:30 | 50.60839 | -3.16987 | 37776 ft | 489 kts | 80° |
| 2026-05-05 09:30 | 50.61445 | -3.11736 | 37027 ft | 485 kts | 81° |
| 2026-05-05 09:31 | 50.62042 | -3.06532 | 36238 ft | 482 kts | 81° |
| 2026-05-05 09:31 | 50.62636 | -3.01334 | 35397 ft | 481 kts | 81° |
| 2026-05-05 09:31 | 50.63227 | -2.96135 | 34478 ft | 482 kts | 81° |
| 2026-05-05 09:31 | 50.63815 | -2.90944 | 33405 ft | 483 kts | 81° |
| 2026-05-05 09:32 | 50.64404 | -2.85718 | 32283 ft | 484 kts | 82° |
| 2026-05-05 09:32 | 50.64992 | -2.80486 | 31195 ft | 486 kts | 83° |
| 2026-05-05 09:32 | 50.65577 | -2.75263 | 30444 ft | 481 kts | 84° |
| 2026-05-05 09:32 | 50.66154 | -2.70088 | 29636 ft | 476 kts | 84° |
| 2026-05-05 09:33 | 50.66719 | -2.64981 | 28840 ft | 470 kts | 84° |
| 2026-05-05 09:33 | 50.67276 | -2.59938 | 28111 ft | 464 kts | 84° |
| 2026-05-05 09:33 | 50.67817 | -2.55025 | 27405 ft | 458 kts | 83° |
| 2026-05-05 09:33 | 50.68257 | -2.50093 | 26803 ft | 446 kts | 90° |
| 2026-05-05 09:34 | 50.68177 | -2.45218 | 26570 ft | 444 kts | 97° |
| 2026-05-05 09:34 | 50.67906 | -2.40323 | 26278 ft | 453 kts | 98° |
| 2026-05-05 09:34 | 50.67610 | -2.35372 | 25960 ft | 452 kts | 98° |
| 2026-05-05 09:34 | 50.67340 | -2.30449 | 25651 ft | 448 kts | 97° |
| 2026-05-05 09:35 | 50.67103 | -2.25576 | 25354 ft | 445 kts | 96° |
| 2026-05-05 09:35 | 50.66678 | -2.15887 | 24757 ft | 440 kts | 96° |
| 2026-05-05 09:35 | 50.66472 | -2.11134 | 24475 ft | 438 kts | 95° |
| 2026-05-05 09:36 | 50.66422 | -2.06349 | 23968 ft | 435 kts | 89° |
| 2026-05-05 09:36 | 50.66739 | -2.01619 | 23234 ft | 434 kts | 82° |
| 2026-05-05 09:36 | 50.67308 | -1.96966 | 22629 ft | 426 kts | 80° |
| 2026-05-05 09:36 | 50.67874 | -1.92424 | 22262 ft | 420 kts | 80° |
| 2026-05-05 09:37 | 50.68430 | -1.87885 | 21905 ft | 423 kts | 81° |
| 2026-05-05 09:37 | 50.68981 | -1.83310 | 21543 ft | 425 kts | 81° |
| 2026-05-05 09:37 | 50.69526 | -1.78721 | 21180 ft | 424 kts | 81° |
| 2026-05-05 09:37 | 50.70064 | -1.74157 | 20814 ft | 421 kts | 81° |
| 2026-05-05 09:38 | 50.70592 | -1.69629 | 20456 ft | 418 kts | 81° |
| 2026-05-05 09:38 | 50.71114 | -1.65124 | 20102 ft | 415 kts | 81° |
| 2026-05-05 09:38 | 50.71623 | -1.60714 | 19758 ft | 412 kts | 81° |
| 2026-05-05 09:38 | 50.72131 | -1.56289 | 19411 ft | 410 kts | 81° |
| 2026-05-05 09:39 | 50.72638 | -1.51862 | 19064 ft | 408 kts | 81° |
| 2026-05-05 09:39 | 50.73139 | -1.47467 | 18712 ft | 406 kts | 81° |
| 2026-05-05 09:39 | 50.73639 | -1.43075 | 18362 ft | 405 kts | 80° |
| 2026-05-05 09:39 | 50.74134 | -1.38713 | 17990 ft | 403 kts | 80° |
| 2026-05-05 09:40 | 50.74624 | -1.34372 | 17625 ft | 401 kts | 80° |
| 2026-05-05 09:40 | 50.75112 | -1.30044 | 17267 ft | 398 kts | 80° |
| 2026-05-05 09:40 | 50.75593 | -1.25752 | 16931 ft | 396 kts | 80° |
| 2026-05-05 09:40 | 50.76071 | -1.21481 | 16592 ft | 394 kts | 80° |
| 2026-05-05 09:41 | 50.76540 | -1.17272 | 16264 ft | 392 kts | 80° |
| 2026-05-05 09:41 | 50.77010 | -1.13035 | 15936 ft | 390 kts | 80° |
| 2026-05-05 09:41 | 50.77477 | -1.08813 | 15600 ft | 389 kts | 80° |
| 2026-05-05 09:41 | 50.77942 | -1.04599 | 15264 ft | 388 kts | 80° |
| 2026-05-05 09:42 | 50.78403 | -1.00407 | 14940 ft | 387 kts | 80° |
| 2026-05-05 09:42 | 50.78857 | -0.96262 | 14615 ft | 385 kts | 79° |
| 2026-05-05 09:42 | 50.79307 | -0.92135 | 14291 ft | 377 kts | 79° |
| 2026-05-05 09:42 | 50.79747 | -0.88089 | 13964 ft | 368 kts | 79° |
| 2026-05-05 09:43 | 50.80176 | -0.84146 | 13632 ft | 360 kts | 79° |
| 2026-05-05 09:43 | 50.80594 | -0.80282 | 13290 ft | 352 kts | 79° |
| 2026-05-05 09:43 | 50.81002 | -0.76494 | 12989 ft | 344 kts | 79° |
| 2026-05-05 09:43 | 50.81399 | -0.72906 | 12842 ft | 317 kts | 79° |
| 2026-05-05 09:44 | 50.81789 | -0.69558 | 12588 ft | 311 kts | 78° |
| 2026-05-05 09:44 | 50.82174 | -0.66291 | 12361 ft | 304 kts | 78° |
| 2026-05-05 09:44 | 50.82558 | -0.63026 | 12147 ft | 300 kts | 78° |
| 2026-05-05 09:44 | 50.82938 | -0.59784 | 11937 ft | 297 kts | 79° |
| 2026-05-05 09:45 | 50.83310 | -0.56588 | 11734 ft | 294 kts | 79° |
| 2026-05-05 09:45 | 50.83679 | -0.53412 | 11536 ft | 292 kts | 79° |
| 2026-05-05 09:45 | 50.83964 | -0.50951 | 11384 ft | 291 kts | 79° |
| 2026-05-05 09:45 | 50.84326 | -0.47815 | 11187 ft | 289 kts | 79° |
| 2026-05-05 09:46 | 50.84685 | -0.44688 | 10989 ft | 288 kts | 79° |
| 2026-05-05 09:46 | 50.85043 | -0.41567 | 10796 ft | 287 kts | 79° |
| 2026-05-05 09:46 | 50.85398 | -0.38462 | 10602 ft | 287 kts | 79° |
| 2026-05-05 09:46 | 50.85752 | -0.35357 | 10403 ft | 286 kts | 79° |
| 2026-05-05 09:47 | 50.86102 | -0.32287 | 10209 ft | 286 kts | 79° |
| 2026-05-05 09:47 | 50.86450 | -0.29213 | 10010 ft | 282 kts | 79° |
| 2026-05-05 09:47 | 50.86793 | -0.26180 | 9808 ft | 278 kts | 79° |
| 2026-05-05 09:47 | 50.87131 | -0.23188 | 9611 ft | 274 kts | 79° |
| 2026-05-05 09:48 | 50.87465 | -0.20229 | 9416 ft | 272 kts | 79° |
| 2026-05-05 09:48 | 50.87796 | -0.17290 | 9238 ft | 271 kts | 79° |
| 2026-05-05 09:48 | 50.88122 | -0.14380 | 9052 ft | 265 kts | 79° |
| 2026-05-05 09:48 | 50.88439 | -0.11543 | 8882 ft | 258 kts | 79° |
| 2026-05-05 09:49 | 50.88769 | -0.08785 | 8695 ft | 249 kts | 72° |
| 2026-05-05 09:49 | 50.89612 | -0.06466 | 8539 ft | 243 kts | 42° |
| 2026-05-05 09:49 | 50.91066 | -0.05190 | 8368 ft | 241 kts | 11° |
| 2026-05-05 09:49 | 50.92690 | -0.05272 | 8211 ft | 241 kts | 342° |
| 2026-05-05 09:50 | 50.94080 | -0.06667 | 8054 ft | 243 kts | 311° |
| 2026-05-05 09:50 | 50.94941 | -0.08993 | 7868 ft | 244 kts | 294° |
| 2026-05-05 09:50 | 50.95564 | -0.11497 | 7606 ft | 249 kts | 291° |
| 2026-05-05 09:50 | 50.96168 | -0.14091 | 7402 ft | 249 kts | 291° |
| 2026-05-05 09:51 | 50.96756 | -0.16649 | 7219 ft | 245 kts | 291° |
| 2026-05-05 09:51 | 50.97329 | -0.19162 | 7053 ft | 240 kts | 291° |
| 2026-05-05 09:51 | 50.97891 | -0.21646 | 6863 ft | 240 kts | 291° |
| 2026-05-05 09:51 | 50.98458 | -0.24158 | 6626 ft | 242 kts | 291° |
| 2026-05-05 09:52 | 50.99024 | -0.26680 | 6434 ft | 243 kts | 291° |
| 2026-05-05 09:52 | 50.99593 | -0.29217 | 6205 ft | 244 kts | 291° |
| 2026-05-05 09:52 | 51.00161 | -0.31767 | 5984 ft | 244 kts | 291° |
| 2026-05-05 09:52 | 51.00726 | -0.34308 | 5742 ft | 244 kts | 291° |
| 2026-05-05 09:53 | 51.01277 | -0.36816 | 5489 ft | 243 kts | 290° |
| 2026-05-05 09:53 | 51.01827 | -0.39349 | 5226 ft | 242 kts | 291° |
| 2026-05-05 09:53 | 51.02371 | -0.41878 | 4977 ft | 242 kts | 291° |
| 2026-05-05 09:53 | 51.02952 | -0.44371 | 4708 ft | 237 kts | 302° |
| 2026-05-05 09:54 | 51.04056 | -0.46202 | 4439 ft | 228 kts | 334° |
| 2026-05-05 09:54 | 51.05475 | -0.47232 | 4204 ft | 221 kts | 340° |
| 2026-05-05 09:54 | 51.06874 | -0.48149 | 3947 ft | 218 kts | 343° |
| 2026-05-05 09:54 | 51.08323 | -0.48442 | 3662 ft | 208 kts | 14° |
| 2026-05-05 09:55 | 51.09541 | -0.47391 | 3498 ft | 196 kts | 44° |
| 2026-05-05 09:55 | 51.10419 | -0.45820 | 3439 ft | 184 kts | 50° |
| 2026-05-05 09:55 | 51.11098 | -0.44142 | 3215 ft | 180 kts | 68° |
| 2026-05-05 09:55 | 51.11495 | -0.42286 | 2985 ft | 176 kts | 69° |
| 2026-05-05 09:56 | 51.11839 | -0.40422 | 2752 ft | 174 kts | 72° |
| 2026-05-05 09:56 | 51.12118 | -0.38545 | 2520 ft | 173 kts | 73° |
| 2026-05-05 09:56 | 51.12372 | -0.36708 | 2308 ft | 167 kts | 73° |
| 2026-05-05 09:56 | 51.12613 | -0.34972 | 2058 ft | 154 kts | 73° |
| 2026-05-05 09:57 | 51.12836 | -0.33366 | 1848 ft | 147 kts | 73° |
| 2026-05-05 09:57 | 51.13055 | -0.31776 | 1677 ft | 148 kts | 74° |
| 2026-05-05 09:57 | 51.13275 | -0.30180 | 1470 ft | 144 kts | 74° |
| 2026-05-05 09:57 | 51.13478 | -0.28693 | 1256 ft | 130 kts | 74° |
| 2026-05-05 09:58 | 51.13666 | -0.27341 | 1097 ft | 127 kts | 73° |
| 2026-05-05 09:58 | 51.13862 | -0.25955 | 939 ft | 133 kts | 75° |
| 2026-05-05 09:58 | 51.14057 | -0.24530 | 751 ft | 131 kts | 74° |
| 2026-05-05 09:58 | 51.14256 | -0.23103 | 574 ft | 134 kts | 74° |
| 2026-05-05 09:59 | 51.14453 | -0.21651 | 382 ft | 131 kts | 74° |
| 2026-05-05 09:59 | 51.14646 | -0.20258 | 223 ft | 123 kts | 74° |
| 2026-05-05 09:59 | 51.14804 | -0.19113 | 219 ft | 85 kts | 77° |
| 2026-05-05 09:59 | 51.14895 | -0.18440 | 216 ft | 41 kts | 78° |
| 2026-05-05 10:00 | 51.14943 | -0.18118 | 221 ft | 28 kts | 73° |
| 2026-05-05 10:00 | 51.15034 | -0.17850 | 221 ft | 23 kts | 53° |
| 2026-05-05 10:00 | 51.15083 | -0.17763 | 214 ft | 8 kts | 27° |
| 2026-05-05 10:00 | 51.15141 | -0.17766 | 216 ft | 9 kts | 354° |
| 2026-05-05 10:01 | 51.15200 | -0.17776 | 214 ft | 9 kts | 352° |
| 2026-05-05 10:01 | 51.15248 | -0.17775 | 216 ft | 6 kts | 31° |
| 2026-05-05 10:01 | 51.15263 | -0.17717 | 219 ft | 6 kts | 74° |
| 2026-05-05 10:01 | 51.15273 | -0.17656 | 220 ft | 6 kts | 76° |
| 2026-05-05 10:02 | 51.15283 | -0.17588 | 209 ft | 6 kts | 77° |
| 2026-05-05 10:02 | 51.15293 | -0.17520 | 217 ft | 6 kts | 78° |
| 2026-05-05 10:02 | 51.15299 | -0.17451 | 216 ft | 7 kts | 81° |
| 2026-05-05 10:02 | 51.15336 | -0.17373 | 214 ft | 11 kts | 5° |
| 2026-05-05 10:03 | 51.15384 | -0.17385 | 214 ft | 0 kts | 348° |
| 2026-05-05 10:04 | 51.15399 | -0.17390 | 216 ft | 6 kts | 348° |
| 2026-05-05 10:04 | 51.15455 | -0.17409 | 213 ft | 9 kts | 347° |
| 2026-05-05 10:04 | 51.15513 | -0.17430 | 219 ft | 9 kts | 347° |
| 2026-05-05 10:05 | 51.15567 | -0.17442 | 216 ft | 7 kts | 9° |
| 2026-05-05 10:05 | 51.15593 | -0.17382 | 220 ft | 7 kts | 74° |
| 2026-05-05 10:05 | 51.15605 | -0.17306 | 218 ft | 7 kts | 76° |
| 2026-05-05 10:05 | 51.15617 | -0.17227 | 217 ft | 7 kts | 77° |
| 2026-05-05 10:06 | 51.15629 | -0.17146 | 216 ft | 7 kts | 77° |
| 2026-05-05 10:06 | 51.15640 | -0.17066 | 211 ft | 8 kts | 77° |
| 2026-05-05 10:06 | 51.15653 | -0.16974 | 217 ft | 9 kts | 77° |
| 2026-05-05 10:06 | 51.15667 | -0.16877 | 216 ft | 9 kts | 77° |
| 2026-05-05 10:07 | 51.15666 | -0.16816 | 219 ft | 3 kts | 122° |
| 2026-05-05 10:07 | 51.15647 | -0.16799 | 214 ft | 3 kts | 159° |
| 2026-05-05 10:07 | 51.15627 | -0.16792 | 219 ft | 3 kts | 166° |
| 2026-05-05 10:07 | 51.15612 | -0.16786 | 219 ft | 1 kts | 167° |
| 2026-05-05 10:08 | 51.15606 | -0.16784 | 215 ft | 0 kts | 167° |
| 2026-05-05 10:08 | 51.15605 | -0.16784 | 215 ft | 0 kts | 167° |
| 2026-05-05 10:08 | 51.15604 | -0.16784 | 221 ft | 0 kts | 167° |